Festivo — EAEQ — position and weather

sailwx.info

Track history (hours):
 
Tides and Currents Weather Stations Pressure Air Temp Water Temp Dewpoint Dewpoint Depression Visibility Wind Speed Wind Dir Waves Ship Positions

Festivo

Last reported at 2016-May-26 10:10 UTC. Time now 2016-May-27 16:15 UTC.
Position N 35°60' W 005°13'.

Length 136 m; draft 4.5 m.

Type: Cargo ship. MMSI: 225410000.

Date/timePositionNaut miles runAvg speedWind from/ knotsBaromVisibWave heightAir tempDewpointWater temp
2016-May-26 10:10N 35°60' W 005°13'711.2
2016-May-26 09:33N 35°54' W 005°18'0 0.4
2016-May-26 08:33N 35°54' W 005°19'0 0.0
2016-May-26 07:33N 35°54' W 005°19'0 0.0
2016-May-26 06:33N 35°54' W 005°19'6 6.2
2016-May-26 05:32N 35°58' W 005°13'2 0.0
2016-May-24 08:34N 35°57' W 005°15'5 4.3
2016-May-24 07:28N 35°54' W 005°19'0 0.0
2016-May-24 06:31N 35°54' W 005°19'0 0.0
2016-May-24 05:22N 35°54' W 005°19'1 1.5
2016-May-24 04:33N 35°55' W 005°18'5 5.1
2016-May-24 03:33N 35°57' W 005°13'  
2016-May-21 16:14N 35°55' W 005°13'6 8.1
2016-May-21 15:34N 35°54' W 005°19'0 0.0
2016-May-21 14:31N 35°54' W 005°19'0 0.0
2016-May-21 13:31N 35°54' W 005°19'0 0.0
2016-May-21 12:31N 35°54' W 005°19'0 0.0
2016-May-21 11:31N 35°54' W 005°19'0 0.0
2016-May-21 10:31N 35°54' W 005°19'0 0.0
2016-May-21 09:31N 35°54' W 005°19'0 0.0
2016-May-21 08:28N 35°54' W 005°19'0 0.0
2016-May-21 07:31N 35°54' W 005°19'0 0.0
2016-May-21 06:31N 35°54' W 005°19'0 0.0
2016-May-21 05:31N 35°54' W 005°19'1 0.7
2016-May-21 04:33N 35°54' W 005°19'4 0.1
2016-May-19 10:34N 35°57' W 005°15'5 4.6
2016-May-19 09:32N 35°54' W 005°19'0 0.0
2016-May-19 08:32N 35°54' W 005°19'4 0.1
2016-May-17 09:33N 35°57' W 005°16'4 3.9
2016-May-17 08:31N 35°54' W 005°19'0 0.0
2016-May-17 07:31N 35°54' W 005°19'0 0.0
2016-May-17 06:31N 35°54' W 005°19'0 0.0
2016-May-17 05:28N 35°54' W 005°19'0 0.4
2016-May-17 04:34N 35°54' W 005°19'6 5.9
2016-May-17 03:34N 35°58' W 005°14'  
Track history (hours):
 
Tides and Currents Weather Stations Pressure Air Temp Water Temp Dewpoint Dewpoint Depression Visibility Wind Speed Wind Dir Waves Ship Positions

Festivo

Last reported at 2016-May-26 10:10 UTC. Time now 2016-May-27 16:15 UTC.
Position N 35°60' W 005°13'.

Length 136 m; draft 4.5 m.

Type: Cargo ship. MMSI: 225410000.

Date/timePositionNaut miles runAvg speedWind from/ knotsBaromVisibWave heightAir tempDewpointWater temp
2016-May-26 10:10N 35°60' W 005°13'711.2
2016-May-26 09:33N 35°54' W 005°18'0 0.4
2016-May-26 08:33N 35°54' W 005°19'0 0.0
2016-May-26 07:33N 35°54' W 005°19'0 0.0
2016-May-26 06:33N 35°54' W 005°19'6 6.2
2016-May-26 05:32N 35°58' W 005°13'2 0.0
2016-May-24 08:34N 35°57' W 005°15'5 4.3
2016-May-24 07:28N 35°54' W 005°19'0 0.0
2016-May-24 06:31N 35°54' W 005°19'0 0.0
2016-May-24 05:22N 35°54' W 005°19'1 1.5
2016-May-24 04:33N 35°55' W 005°18'5 5.1
2016-May-24 03:33N 35°57' W 005°13'  
2016-May-21 16:14N 35°55' W 005°13'6 8.1
2016-May-21 15:34N 35°54' W 005°19'0 0.0
2016-May-21 14:31N 35°54' W 005°19'0 0.0
2016-May-21 13:31N 35°54' W 005°19'0 0.0
2016-May-21 12:31N 35°54' W 005°19'0 0.0
2016-May-21 11:31N 35°54' W 005°19'0 0.0
2016-May-21 10:31N 35°54' W 005°19'0 0.0
2016-May-21 09:31N 35°54' W 005°19'0 0.0
2016-May-21 08:28N 35°54' W 005°19'0 0.0
2016-May-21 07:31N 35°54' W 005°19'0 0.0
2016-May-21 06:31N 35°54' W 005°19'0 0.0
2016-May-21 05:31N 35°54' W 005°19'1 0.7
2016-May-21 04:33N 35°54' W 005°19'4 0.1
2016-May-19 10:34N 35°57' W 005°15'5 4.6
2016-May-19 09:32N 35°54' W 005°19'0 0.0
2016-May-19 08:32N 35°54' W 005°19'4 0.1
2016-May-17 09:33N 35°57' W 005°16'4 3.9
2016-May-17 08:31N 35°54' W 005°19'0 0.0
2016-May-17 07:31N 35°54' W 005°19'0 0.0
2016-May-17 06:31N 35°54' W 005°19'0 0.0
2016-May-17 05:28N 35°54' W 005°19'0 0.4
2016-May-17 04:34N 35°54' W 005°19'6 5.9
2016-May-17 03:34N 35°58' W 005°14'  

Dump ship's entire track history